sensor_id;sensor_type;location;lat;lon;timestamp;P1;durP1;ratioP1;P2;durP2;ratioP2
67816;SDS011;54614;47.576;7.524;2023-06-04T00:01:43;5.63;;;3.92;;
67816;SDS011;54614;47.576;7.524;2023-06-04T00:04:11;4.45;;;4.05;;
67816;SDS011;54614;47.576;7.524;2023-06-04T00:06:37;6.45;;;3.80;;
67816;SDS011;54614;47.576;7.524;2023-06-04T00:09:02;4.18;;;3.78;;
67816;SDS011;54614;47.576;7.524;2023-06-04T00:11:28;6.88;;;3.80;;
67816;SDS011;54614;47.576;7.524;2023-06-04T00:13:54;5.22;;;3.72;;
67816;SDS011;54614;47.576;7.524;2023-06-04T00:16:20;4.15;;;3.75;;
67816;SDS011;54614;47.576;7.524;2023-06-04T00:18:45;4.80;;;3.65;;
67816;SDS011;54614;47.576;7.524;2023-06-04T00:21:11;6.25;;;3.95;;
67816;SDS011;54614;47.576;7.524;2023-06-04T00:23:37;5.88;;;3.75;;
67816;SDS011;54614;47.576;7.524;2023-06-04T00:26:03;5.70;;;3.80;;
67816;SDS011;54614;47.576;7.524;2023-06-04T00:28:29;4.20;;;3.50;;
67816;SDS011;54614;47.576;7.524;2023-06-04T00:30:54;4.32;;;3.45;;
67816;SDS011;54614;47.576;7.524;2023-06-04T00:33:20;3.95;;;3.50;;
67816;SDS011;54614;47.576;7.524;2023-06-04T00:35:46;3.75;;;3.40;;
67816;SDS011;54614;47.576;7.524;2023-06-04T00:38:12;4.25;;;3.60;;
67816;SDS011;54614;47.576;7.524;2023-06-04T00:40:38;4.30;;;3.20;;
67816;SDS011;54614;47.576;7.524;2023-06-04T00:43:03;4.03;;;3.53;;
67816;SDS011;54614;47.576;7.524;2023-06-04T00:45:30;3.70;;;3.35;;
67816;SDS011;54614;47.576;7.524;2023-06-04T00:47:56;3.95;;;3.30;;
67816;SDS011;54614;47.576;7.524;2023-06-04T00:50:23;6.95;;;3.50;;
67816;SDS011;54614;47.576;7.524;2023-06-04T00:52:49;3.78;;;3.38;;
67816;SDS011;54614;47.576;7.524;2023-06-04T00:55:16;4.00;;;3.47;;
67816;SDS011;54614;47.576;7.524;2023-06-04T00:57:45;3.92;;;3.42;;
67816;SDS011;54614;47.576;7.524;2023-06-04T01:00:11;4.20;;;3.47;;
67816;SDS011;54614;47.576;7.524;2023-06-04T01:02:38;3.53;;;3.22;;
67816;SDS011;54614;47.576;7.524;2023-06-04T01:05:16;4.38;;;3.65;;
67816;SDS011;54614;47.576;7.524;2023-06-04T01:07:58;3.80;;;3.50;;
67816;SDS011;54614;47.576;7.524;2023-06-04T01:10:25;3.50;;;3.20;;
67816;SDS011;54614;47.576;7.524;2023-06-04T01:12:51;4.85;;;3.50;;
67816;SDS011;54614;47.576;7.524;2023-06-04T01:15:16;4.40;;;3.60;;
67816;SDS011;54614;47.576;7.524;2023-06-04T01:17:43;4.20;;;3.45;;
67816;SDS011;54614;47.576;7.524;2023-06-04T01:20:23;4.07;;;3.38;;
67816;SDS011;54614;47.576;7.524;2023-06-04T01:23:14;4.80;;;3.20;;
67816;SDS011;54614;47.576;7.524;2023-06-04T01:25:58;4.63;;;3.30;;
67816;SDS011;54614;47.576;7.524;2023-06-04T01:28:27;3.80;;;3.38;;
67816;SDS011;54614;47.576;7.524;2023-06-04T01:30:56;3.50;;;3.20;;
67816;SDS011;54614;47.576;7.524;2023-06-04T01:33:24;3.80;;;3.40;;
67816;SDS011;54614;47.576;7.524;2023-06-04T01:35:50;4.40;;;3.40;;
67816;SDS011;54614;47.576;7.524;2023-06-04T01:38:17;3.78;;;3.38;;
67816;SDS011;54614;47.576;7.524;2023-06-04T01:40:43;3.40;;;3.10;;
67816;SDS011;54614;47.576;7.524;2023-06-04T01:43:09;3.58;;;3.25;;
67816;SDS011;54614;47.576;7.524;2023-06-04T01:45:35;4.15;;;3.40;;
67816;SDS011;54614;47.576;7.524;2023-06-04T01:48:01;3.58;;;3.28;;
67816;SDS011;54614;47.576;7.524;2023-06-04T01:50:30;5.07;;;3.10;;
67816;SDS011;54614;47.576;7.524;2023-06-04T01:52:56;3.40;;;3.10;;
67816;SDS011;54614;47.576;7.524;2023-06-04T01:55:22;3.30;;;3.00;;
67816;SDS011;54614;47.576;7.524;2023-06-04T01:57:50;3.50;;;3.08;;
67816;SDS011;54614;47.576;7.524;2023-06-04T02:00:16;3.35;;;3.05;;
67816;SDS011;54614;47.576;7.524;2023-06-04T02:02:43;3.25;;;2.92;;
67816;SDS011;54614;47.576;7.524;2023-06-04T02:05:11;3.17;;;2.88;;
67816;SDS011;54614;47.576;7.524;2023-06-04T02:07:38;3.55;;;3.25;;
67816;SDS011;54614;47.576;7.524;2023-06-04T02:10:06;4.30;;;3.08;;
67816;SDS011;54614;47.576;7.524;2023-06-04T02:12:56;3.30;;;3.00;;
67816;SDS011;54614;47.576;7.524;2023-06-04T02:15:24;3.50;;;3.20;;
67816;SDS011;54614;47.576;7.524;2023-06-04T02:17:54;3.30;;;3.00;;
67816;SDS011;54614;47.576;7.524;2023-06-04T02:20:41;3.30;;;3.00;;
67816;SDS011;54614;47.576;7.524;2023-06-04T02:23:09;3.20;;;2.90;;
67816;SDS011;54614;47.576;7.524;2023-06-04T02:25:36;4.07;;;3.10;;
67816;SDS011;54614;47.576;7.524;2023-06-04T02:28:01;3.20;;;2.90;;
67816;SDS011;54614;47.576;7.524;2023-06-04T02:30:27;4.03;;;3.13;;
67816;SDS011;54614;47.576;7.524;2023-06-04T02:32:53;3.40;;;3.10;;
67816;SDS011;54614;47.576;7.524;2023-06-04T02:35:20;3.03;;;2.83;;
67816;SDS011;54614;47.576;7.524;2023-06-04T02:37:48;3.60;;;3.15;;
67816;SDS011;54614;47.576;7.524;2023-06-04T02:40:15;3.05;;;2.80;;
67816;SDS011;54614;47.576;7.524;2023-06-04T02:42:40;3.30;;;3.00;;
67816;SDS011;54614;47.576;7.524;2023-06-04T02:45:06;3.20;;;2.90;;
67816;SDS011;54614;47.576;7.524;2023-06-04T02:47:33;3.50;;;3.20;;
67816;SDS011;54614;47.576;7.524;2023-06-04T02:49:59;3.30;;;3.00;;
67816;SDS011;54614;47.576;7.524;2023-06-04T02:52:25;2.95;;;2.65;;
67816;SDS011;54614;47.576;7.524;2023-06-04T02:54:51;3.10;;;2.78;;
67816;SDS011;54614;47.576;7.524;2023-06-04T02:57:17;3.35;;;3.05;;
67816;SDS011;54614;47.576;7.524;2023-06-04T02:59:42;2.97;;;2.78;;
67816;SDS011;54614;47.576;7.524;2023-06-04T03:02:08;3.28;;;2.97;;
67816;SDS011;54614;47.576;7.524;2023-06-04T03:04:34;3.15;;;2.90;;
67816;SDS011;54614;47.576;7.524;2023-06-04T03:07:01;3.13;;;2.80;;
67816;SDS011;54614;47.576;7.524;2023-06-04T03:09:28;2.90;;;2.70;;
67816;SDS011;54614;47.576;7.524;2023-06-04T03:12:02;3.15;;;2.85;;
67816;SDS011;54614;47.576;7.524;2023-06-04T03:14:28;3.30;;;3.00;;
67816;SDS011;54614;47.576;7.524;2023-06-04T03:17:01;3.33;;;3.03;;
67816;SDS011;54614;47.576;7.524;2023-06-04T03:19:36;3.20;;;2.90;;
67816;SDS011;54614;47.576;7.524;2023-06-04T03:22:04;2.92;;;2.70;;
67816;SDS011;54614;47.576;7.524;2023-06-04T03:24:34;3.20;;;2.90;;
67816;SDS011;54614;47.576;7.524;2023-06-04T03:27:05;3.22;;;2.92;;
67816;SDS011;54614;47.576;7.524;2023-06-04T03:29:33;3.15;;;2.88;;
67816;SDS011;54614;47.576;7.524;2023-06-04T03:32:00;3.65;;;2.88;;
67816;SDS011;54614;47.576;7.524;2023-06-04T03:34:26;3.17;;;2.97;;
67816;SDS011;54614;47.576;7.524;2023-06-04T03:36:55;2.90;;;2.70;;
67816;SDS011;54614;47.576;7.524;2023-06-04T03:39:21;3.05;;;2.85;;
67816;SDS011;54614;47.576;7.524;2023-06-04T03:41:47;3.10;;;2.80;;
67816;SDS011;54614;47.576;7.524;2023-06-04T03:44:17;2.97;;;2.78;;
67816;SDS011;54614;47.576;7.524;2023-06-04T03:46:43;2.80;;;2.60;;
67816;SDS011;54614;47.576;7.524;2023-06-04T03:49:10;3.28;;;2.97;;
67816;SDS011;54614;47.576;7.524;2023-06-04T03:51:38;2.70;;;2.50;;
67816;SDS011;54614;47.576;7.524;2023-06-04T03:54:04;2.97;;;2.78;;
67816;SDS011;54614;47.576;7.524;2023-06-04T03:56:30;3.63;;;2.90;;
67816;SDS011;54614;47.576;7.524;2023-06-04T03:58:57;2.63;;;2.42;;
67816;SDS011;54614;47.576;7.524;2023-06-04T04:01:23;2.70;;;2.50;;
67816;SDS011;54614;47.576;7.524;2023-06-04T04:03:50;2.70;;;2.50;;
67816;SDS011;54614;47.576;7.524;2023-06-04T04:06:17;2.95;;;2.75;;
67816;SDS011;54614;47.576;7.524;2023-06-04T04:08:43;2.95;;;2.75;;
67816;SDS011;54614;47.576;7.524;2023-06-04T04:11:13;3.47;;;2.60;;
67816;SDS011;54614;47.576;7.524;2023-06-04T04:13:40;3.00;;;2.70;;
67816;SDS011;54614;47.576;7.524;2023-06-04T04:16:06;2.70;;;2.50;;
67816;SDS011;54614;47.576;7.524;2023-06-04T04:18:33;3.00;;;2.80;;
67816;SDS011;54614;47.576;7.524;2023-06-04T04:21:01;3.10;;;2.80;;
67816;SDS011;54614;47.576;7.524;2023-06-04T04:23:28;3.10;;;2.80;;
67816;SDS011;54614;47.576;7.524;2023-06-04T04:25:57;2.92;;;2.72;;
67816;SDS011;54614;47.576;7.524;2023-06-04T04:28:27;3.10;;;2.80;;
67816;SDS011;54614;47.576;7.524;2023-06-04T04:30:56;3.65;;;2.70;;
67816;SDS011;54614;47.576;7.524;2023-06-04T04:33:23;2.80;;;2.60;;
67816;SDS011;54614;47.576;7.524;2023-06-04T04:35:52;2.70;;;2.50;;
67816;SDS011;54614;47.576;7.524;2023-06-04T04:38:21;2.83;;;2.63;;
67816;SDS011;54614;47.576;7.524;2023-06-04T04:40:49;2.90;;;2.70;;
67816;SDS011;54614;47.576;7.524;2023-06-04T04:43:17;3.03;;;2.70;;
67816;SDS011;54614;47.576;7.524;2023-06-04T04:45:57;2.70;;;2.50;;
67816;SDS011;54614;47.576;7.524;2023-06-04T04:48:23;2.70;;;2.50;;
67816;SDS011;54614;47.576;7.524;2023-06-04T04:50:51;3.05;;;2.60;;
67816;SDS011;54614;47.576;7.524;2023-06-04T04:53:17;2.72;;;2.53;;
67816;SDS011;54614;47.576;7.524;2023-06-04T04:55:43;3.03;;;2.72;;
67816;SDS011;54614;47.576;7.524;2023-06-04T04:58:09;2.97;;;2.67;;
67816;SDS011;54614;47.576;7.524;2023-06-04T05:00:35;2.90;;;2.70;;
67816;SDS011;54614;47.576;7.524;2023-06-04T05:03:01;2.70;;;2.50;;
67816;SDS011;54614;47.576;7.524;2023-06-04T05:05:27;2.80;;;2.60;;
67816;SDS011;54614;47.576;7.524;2023-06-04T05:07:52;2.83;;;2.63;;
67816;SDS011;54614;47.576;7.524;2023-06-04T05:10:18;3.00;;;2.70;;
67816;SDS011;54614;47.576;7.524;2023-06-04T05:12:51;2.60;;;2.40;;
67816;SDS011;54614;47.576;7.524;2023-06-04T05:15:21;2.95;;;2.70;;
67816;SDS011;54614;47.576;7.524;2023-06-04T05:17:49;2.78;;;2.58;;
67816;SDS011;54614;47.576;7.524;2023-06-04T05:20:17;2.60;;;2.40;;
67816;SDS011;54614;47.576;7.524;2023-06-04T05:22:44;3.03;;;2.40;;
67816;SDS011;54614;47.576;7.524;2023-06-04T05:25:10;2.83;;;2.63;;
67816;SDS011;54614;47.576;7.524;2023-06-04T05:27:36;2.40;;;2.22;;
67816;SDS011;54614;47.576;7.524;2023-06-04T05:30:05;2.85;;;2.58;;
67816;SDS011;54614;47.576;7.524;2023-06-04T05:32:32;2.70;;;2.50;;
67816;SDS011;54614;47.576;7.524;2023-06-04T05:34:58;2.75;;;2.55;;
67816;SDS011;54614;47.576;7.524;2023-06-04T05:37:25;2.80;;;2.60;;
67816;SDS011;54614;47.576;7.524;2023-06-04T05:39:56;2.60;;;2.40;;
67816;SDS011;54614;47.576;7.524;2023-06-04T05:42:23;2.60;;;2.40;;
67816;SDS011;54614;47.576;7.524;2023-06-04T05:44:49;2.75;;;2.55;;
67816;SDS011;54614;47.576;7.524;2023-06-04T05:47:15;2.75;;;2.55;;
67816;SDS011;54614;47.576;7.524;2023-06-04T05:49:41;2.58;;;2.38;;
67816;SDS011;54614;47.576;7.524;2023-06-04T05:52:07;3.78;;;2.47;;
67816;SDS011;54614;47.576;7.524;2023-06-04T05:54:33;2.58;;;2.38;;
67816;SDS011;54614;47.576;7.524;2023-06-04T05:56:59;2.60;;;2.40;;
67816;SDS011;54614;47.576;7.524;2023-06-04T05:59:25;2.45;;;2.25;;
67816;SDS011;54614;47.576;7.524;2023-06-04T06:01:51;2.47;;;2.28;;
67816;SDS011;54614;47.576;7.524;2023-06-04T06:04:17;2.50;;;2.30;;
67816;SDS011;54614;47.576;7.524;2023-06-04T06:06:43;3.75;;;2.40;;
67816;SDS011;54614;47.576;7.524;2023-06-04T06:09:09;2.60;;;2.40;;
67816;SDS011;54614;47.576;7.524;2023-06-04T06:11:36;2.75;;;2.55;;
67816;SDS011;54614;47.576;7.524;2023-06-04T06:14:01;2.40;;;2.20;;
67816;SDS011;54614;47.576;7.524;2023-06-04T06:16:27;3.65;;;2.58;;
67816;SDS011;54614;47.576;7.524;2023-06-04T06:18:53;2.50;;;2.30;;
67816;SDS011;54614;47.576;7.524;2023-06-04T06:21:19;2.78;;;2.58;;
67816;SDS011;54614;47.576;7.524;2023-06-04T06:23:45;2.42;;;2.22;;
67816;SDS011;54614;47.576;7.524;2023-06-04T06:26:11;2.67;;;2.47;;
67816;SDS011;54614;47.576;7.524;2023-06-04T06:28:37;2.55;;;2.13;;
67816;SDS011;54614;47.576;7.524;2023-06-04T06:31:04;3.08;;;2.40;;
67816;SDS011;54614;47.576;7.524;2023-06-04T06:33:30;2.50;;;2.30;;
67816;SDS011;54614;47.576;7.524;2023-06-04T06:35:56;2.58;;;2.38;;
67816;SDS011;54614;47.576;7.524;2023-06-04T06:38:25;2.67;;;2.47;;
67816;SDS011;54614;47.576;7.524;2023-06-04T06:40:52;2.60;;;2.40;;
67816;SDS011;54614;47.576;7.524;2023-06-04T06:43:17;2.42;;;2.22;;
67816;SDS011;54614;47.576;7.524;2023-06-04T06:45:43;2.50;;;2.30;;
67816;SDS011;54614;47.576;7.524;2023-06-04T06:48:09;2.50;;;2.30;;
67816;SDS011;54614;47.576;7.524;2023-06-04T06:50:35;2.40;;;2.20;;
67816;SDS011;54614;47.576;7.524;2023-06-04T06:53:01;2.65;;;2.45;;
67816;SDS011;54614;47.576;7.524;2023-06-04T06:55:28;2.55;;;2.35;;
67816;SDS011;54614;47.576;7.524;2023-06-04T06:57:54;5.20;;;2.28;;
67816;SDS011;54614;47.576;7.524;2023-06-04T07:00:20;2.60;;;2.20;;
67816;SDS011;54614;47.576;7.524;2023-06-04T07:02:45;2.60;;;2.40;;
67816;SDS011;54614;47.576;7.524;2023-06-04T07:05:11;2.60;;;2.40;;
67816;SDS011;54614;47.576;7.524;2023-06-04T07:07:40;3.42;;;2.95;;
67816;SDS011;54614;47.576;7.524;2023-06-04T07:10:06;8.45;;;3.95;;
67816;SDS011;54614;47.576;7.524;2023-06-04T07:12:32;10.65;;;5.35;;
67816;SDS011;54614;47.576;7.524;2023-06-04T07:14:58;8.40;;;5.07;;
67816;SDS011;54614;47.576;7.524;2023-06-04T07:17:24;11.82;;;5.53;;
67816;SDS011;54614;47.576;7.524;2023-06-04T07:19:50;11.32;;;5.65;;
67816;SDS011;54614;47.576;7.524;2023-06-04T07:22:15;9.48;;;5.78;;
67816;SDS011;54614;47.576;7.524;2023-06-04T07:24:41;9.43;;;6.05;;
67816;SDS011;54614;47.576;7.524;2023-06-04T07:27:14;8.25;;;5.68;;
67816;SDS011;54614;47.576;7.524;2023-06-04T07:29:42;10.50;;;5.82;;
67816;SDS011;54614;47.576;7.524;2023-06-04T07:32:09;19.17;;;6.05;;
67816;SDS011;54614;47.576;7.524;2023-06-04T07:34:35;9.25;;;6.25;;
67816;SDS011;54614;47.576;7.524;2023-06-04T07:37:03;10.05;;;5.75;;
67816;SDS011;54614;47.576;7.524;2023-06-04T07:39:30;11.52;;;6.03;;
67816;SDS011;54614;47.576;7.524;2023-06-04T07:41:56;14.45;;;5.78;;
67816;SDS011;54614;47.576;7.524;2023-06-04T07:44:22;11.13;;;5.88;;
67816;SDS011;54614;47.576;7.524;2023-06-04T07:46:48;8.40;;;5.53;;
67816;SDS011;54614;47.576;7.524;2023-06-04T07:49:14;12.18;;;5.75;;
67816;SDS011;54614;47.576;7.524;2023-06-04T07:51:40;12.93;;;5.68;;
67816;SDS011;54614;47.576;7.524;2023-06-04T07:54:06;10.18;;;5.80;;
67816;SDS011;54614;47.576;7.524;2023-06-04T07:56:32;11.02;;;5.53;;
67816;SDS011;54614;47.576;7.524;2023-06-04T07:58:58;9.98;;;5.72;;
67816;SDS011;54614;47.576;7.524;2023-06-04T08:01:24;12.38;;;6.05;;
67816;SDS011;54614;47.576;7.524;2023-06-04T08:03:49;9.07;;;5.50;;
67816;SDS011;54614;47.576;7.524;2023-06-04T08:06:15;11.07;;;5.45;;
67816;SDS011;54614;47.576;7.524;2023-06-04T08:08:42;8.20;;;5.53;;
67816;SDS011;54614;47.576;7.524;2023-06-04T08:11:13;8.52;;;5.65;;
67816;SDS011;54614;47.576;7.524;2023-06-04T08:13:40;9.13;;;5.50;;
67816;SDS011;54614;47.576;7.524;2023-06-04T08:16:07;14.82;;;5.57;;
67816;SDS011;54614;47.576;7.524;2023-06-04T08:18:38;8.88;;;5.95;;
67816;SDS011;54614;47.576;7.524;2023-06-04T08:21:05;10.80;;;6.03;;
67816;SDS011;54614;47.576;7.524;2023-06-04T08:23:35;12.73;;;6.10;;
67816;SDS011;54614;47.576;7.524;2023-06-04T08:26:01;11.48;;;6.50;;
67816;SDS011;54614;47.576;7.524;2023-06-04T08:28:27;14.02;;;5.97;;
67816;SDS011;54614;47.576;7.524;2023-06-04T08:30:53;29.83;;;6.70;;
67816;SDS011;54614;47.576;7.524;2023-06-04T08:33:19;13.20;;;5.97;;
67816;SDS011;54614;47.576;7.524;2023-06-04T08:35:45;13.95;;;6.63;;
67816;SDS011;54614;47.576;7.524;2023-06-04T08:38:11;16.40;;;6.13;;
67816;SDS011;54614;47.576;7.524;2023-06-04T08:40:37;16.02;;;6.57;;
67816;SDS011;54614;47.576;7.524;2023-06-04T08:43:03;15.43;;;6.53;;
67816;SDS011;54614;47.576;7.524;2023-06-04T08:45:31;13.57;;;6.75;;
67816;SDS011;54614;47.576;7.524;2023-06-04T08:48:03;9.95;;;6.18;;
67816;SDS011;54614;47.576;7.524;2023-06-04T08:50:34;16.30;;;6.68;;
67816;SDS011;54614;47.576;7.524;2023-06-04T08:53:01;9.20;;;6.53;;
67816;SDS011;54614;47.576;7.524;2023-06-04T08:55:28;13.65;;;6.63;;
67816;SDS011;54614;47.576;7.524;2023-06-04T08:57:54;13.75;;;6.63;;
67816;SDS011;54614;47.576;7.524;2023-06-04T09:00:20;13.07;;;6.53;;
67816;SDS011;54614;47.576;7.524;2023-06-04T09:02:46;11.82;;;6.43;;
67816;SDS011;54614;47.576;7.524;2023-06-04T09:05:16;13.07;;;6.45;;
67816;SDS011;54614;47.576;7.524;2023-06-04T09:07:46;10.05;;;6.53;;
67816;SDS011;54614;47.576;7.524;2023-06-04T09:10:17;13.98;;;6.22;;
67816;SDS011;54614;47.576;7.524;2023-06-04T09:12:46;11.20;;;6.53;;
67816;SDS011;54614;47.576;7.524;2023-06-04T09:15:14;14.98;;;6.93;;
67816;SDS011;54614;47.576;7.524;2023-06-04T09:17:40;14.00;;;6.53;;
67816;SDS011;54614;47.576;7.524;2023-06-04T09:20:06;11.07;;;6.60;;
67816;SDS011;54614;47.576;7.524;2023-06-04T09:22:36;8.63;;;5.68;;
67816;SDS011;54614;47.576;7.524;2023-06-04T09:25:03;11.55;;;5.90;;
67816;SDS011;54614;47.576;7.524;2023-06-04T09:27:39;9.65;;;6.05;;
67816;SDS011;54614;47.576;7.524;2023-06-04T09:30:05;9.23;;;5.70;;
67816;SDS011;54614;47.576;7.524;2023-06-04T09:32:34;7.88;;;5.43;;
67816;SDS011;54614;47.576;7.524;2023-06-04T09:37:38;9.00;;;5.80;;
67816;SDS011;54614;47.576;7.524;2023-06-04T09:40:05;10.80;;;5.90;;
67816;SDS011;54614;47.576;7.524;2023-06-04T09:42:46;9.48;;;6.20;;
67816;SDS011;54614;47.576;7.524;2023-06-04T09:45:28;11.27;;;6.30;;
67816;SDS011;54614;47.576;7.524;2023-06-04T09:47:57;8.82;;;5.55;;
67816;SDS011;54614;47.576;7.524;2023-06-04T09:50:27;9.57;;;5.80;;
67816;SDS011;54614;47.576;7.524;2023-06-04T09:52:59;9.60;;;6.00;;
67816;SDS011;54614;47.576;7.524;2023-06-04T09:55:27;8.18;;;5.97;;
67816;SDS011;54614;47.576;7.524;2023-06-04T09:57:53;9.85;;;6.20;;
67816;SDS011;54614;47.576;7.524;2023-06-04T10:00:19;9.05;;;6.53;;
67816;SDS011;54614;47.576;7.524;2023-06-04T10:02:51;9.88;;;6.55;;
67816;SDS011;54614;47.576;7.524;2023-06-04T10:05:26;9.82;;;6.10;;
67816;SDS011;54614;47.576;7.524;2023-06-04T10:07:56;7.85;;;6.10;;
67816;SDS011;54614;47.576;7.524;2023-06-04T10:10:30;12.38;;;6.00;;
67816;SDS011;54614;47.576;7.524;2023-06-04T10:13:05;8.70;;;6.30;;
67816;SDS011;54614;47.576;7.524;2023-06-04T10:15:43;8.48;;;6.40;;
67816;SDS011;54614;47.576;7.524;2023-06-04T10:18:11;8.30;;;5.78;;
67816;SDS011;54614;47.576;7.524;2023-06-04T10:20:40;9.73;;;6.18;;
67816;SDS011;54614;47.576;7.524;2023-06-04T10:23:07;8.43;;;5.97;;
67816;SDS011;54614;47.576;7.524;2023-06-04T10:25:36;10.73;;;6.15;;
67816;SDS011;54614;47.576;7.524;2023-06-04T10:28:03;6.53;;;5.47;;
67816;SDS011;54614;47.576;7.524;2023-06-04T10:30:30;8.93;;;5.75;;
67816;SDS011;54614;47.576;7.524;2023-06-04T10:32:56;7.85;;;6.22;;
67816;SDS011;54614;47.576;7.524;2023-06-04T10:35:32;10.73;;;6.07;;
67816;SDS011;54614;47.576;7.524;2023-06-04T10:38:06;7.55;;;5.97;;
67816;SDS011;54614;47.576;7.524;2023-06-04T10:40:34;7.70;;;6.15;;
67816;SDS011;54614;47.576;7.524;2023-06-04T10:43:07;11.10;;;6.13;;
67816;SDS011;54614;47.576;7.524;2023-06-04T10:45:35;10.70;;;7.07;;
67816;SDS011;54614;47.576;7.524;2023-06-04T10:48:02;9.23;;;6.60;;
67816;SDS011;54614;47.576;7.524;2023-06-04T10:50:30;10.43;;;7.07;;
67816;SDS011;54614;47.576;7.524;2023-06-04T10:53:12;7.45;;;6.25;;
67816;SDS011;54614;47.576;7.524;2023-06-04T10:55:47;10.90;;;8.60;;
67816;SDS011;54614;47.576;7.524;2023-06-04T10:58:14;9.13;;;6.55;;
67816;SDS011;54614;47.576;7.524;2023-06-04T11:00:45;11.90;;;6.70;;
67816;SDS011;54614;47.576;7.524;2023-06-04T11:03:14;9.55;;;6.93;;
67816;SDS011;54614;47.576;7.524;2023-06-04T11:05:44;11.55;;;7.20;;
67816;SDS011;54614;47.576;7.524;2023-06-04T11:08:12;10.23;;;6.68;;
67816;SDS011;54614;47.576;7.524;2023-06-04T11:10:40;9.82;;;6.45;;
67816;SDS011;54614;47.576;7.524;2023-06-04T11:13:09;11.85;;;6.45;;
67816;SDS011;54614;47.576;7.524;2023-06-04T11:15:53;8.77;;;6.50;;
67816;SDS011;54614;47.576;7.524;2023-06-04T11:18:19;9.90;;;6.63;;
67816;SDS011;54614;47.576;7.524;2023-06-04T11:20:59;12.50;;;6.63;;
67816;SDS011;54614;47.576;7.524;2023-06-04T11:23:26;9.38;;;6.10;;
67816;SDS011;54614;47.576;7.524;2023-06-04T11:25:52;9.93;;;6.22;;
67816;SDS011;54614;47.576;7.524;2023-06-04T11:28:19;7.85;;;6.07;;
67816;SDS011;54614;47.576;7.524;2023-06-04T11:31:01;8.65;;;6.05;;
67816;SDS011;54614;47.576;7.524;2023-06-04T11:33:28;6.70;;;5.82;;
67816;SDS011;54614;47.576;7.524;2023-06-04T11:36:07;9.60;;;5.82;;
67816;SDS011;54614;47.576;7.524;2023-06-04T11:38:33;10.93;;;6.13;;
67816;SDS011;54614;47.576;7.524;2023-06-04T11:40:59;8.02;;;5.97;;
67816;SDS011;54614;47.576;7.524;2023-06-04T11:43:30;10.73;;;5.97;;
67816;SDS011;54614;47.576;7.524;2023-06-04T11:45:57;8.23;;;5.78;;
67816;SDS011;54614;47.576;7.524;2023-06-04T11:48:23;7.85;;;5.97;;
67816;SDS011;54614;47.576;7.524;2023-06-04T11:50:49;8.80;;;5.95;;
67816;SDS011;54614;47.576;7.524;2023-06-04T11:53:15;8.00;;;6.00;;
67816;SDS011;54614;47.576;7.524;2023-06-04T11:55:42;11.98;;;5.70;;
67816;SDS011;54614;47.576;7.524;2023-06-04T11:58:08;8.98;;;5.75;;
67816;SDS011;54614;47.576;7.524;2023-06-04T12:00:34;8.15;;;5.40;;
67816;SDS011;54614;47.576;7.524;2023-06-04T12:03:01;7.90;;;5.45;;
67816;SDS011;54614;47.576;7.524;2023-06-04T12:05:29;6.63;;;5.25;;
67816;SDS011;54614;47.576;7.524;2023-06-04T12:08:06;7.60;;;5.40;;
67816;SDS011;54614;47.576;7.524;2023-06-04T12:10:41;7.13;;;5.75;;
67816;SDS011;54614;47.576;7.524;2023-06-04T12:13:09;8.13;;;5.43;;
67816;SDS011;54614;47.576;7.524;2023-06-04T12:15:35;10.25;;;5.40;;
67816;SDS011;54614;47.576;7.524;2023-06-04T12:18:01;10.50;;;5.47;;
67816;SDS011;54614;47.576;7.524;2023-06-04T12:20:34;7.70;;;5.32;;
67816;SDS011;54614;47.576;7.524;2023-06-04T12:23:05;9.65;;;5.20;;
67816;SDS011;54614;47.576;7.524;2023-06-04T12:25:32;7.25;;;5.22;;
67816;SDS011;54614;47.576;7.524;2023-06-04T12:27:59;7.70;;;5.35;;
67816;SDS011;54614;47.576;7.524;2023-06-04T12:30:39;9.70;;;5.45;;
67816;SDS011;54614;47.576;7.524;2023-06-04T12:33:05;7.90;;;4.95;;
67816;SDS011;54614;47.576;7.524;2023-06-04T12:35:33;5.93;;;4.75;;
67816;SDS011;54614;47.576;7.524;2023-06-04T12:37:59;5.85;;;5.13;;
67816;SDS011;54614;47.576;7.524;2023-06-04T12:40:27;7.22;;;5.32;;
67816;SDS011;54614;47.576;7.524;2023-06-04T12:42:53;6.10;;;5.00;;
67816;SDS011;54614;47.576;7.524;2023-06-04T12:45:19;8.25;;;5.20;;
67816;SDS011;54614;47.576;7.524;2023-06-04T12:47:48;10.45;;;5.15;;
67816;SDS011;54614;47.576;7.524;2023-06-04T12:50:14;7.53;;;4.90;;
67816;SDS011;54614;47.576;7.524;2023-06-04T12:52:39;7.20;;;4.88;;
67816;SDS011;54614;47.576;7.524;2023-06-04T12:55:06;6.13;;;4.90;;
67816;SDS011;54614;47.576;7.524;2023-06-04T12:57:33;7.75;;;5.15;;
67816;SDS011;54614;47.576;7.524;2023-06-04T12:59:58;6.97;;;4.85;;
67816;SDS011;54614;47.576;7.524;2023-06-04T13:02:24;9.05;;;5.45;;
67816;SDS011;54614;47.576;7.524;2023-06-04T13:04:50;7.32;;;5.15;;
67816;SDS011;54614;47.576;7.524;2023-06-04T13:07:19;9.20;;;5.32;;
67816;SDS011;54614;47.576;7.524;2023-06-04T13:09:45;11.15;;;4.97;;
67816;SDS011;54614;47.576;7.524;2023-06-04T13:12:11;5.93;;;4.63;;
67816;SDS011;54614;47.576;7.524;2023-06-04T13:14:36;7.50;;;4.70;;
67816;SDS011;54614;47.576;7.524;2023-06-04T13:17:02;9.57;;;4.80;;
67816;SDS011;54614;47.576;7.524;2023-06-04T13:19:28;5.75;;;4.53;;
67816;SDS011;54614;47.576;7.524;2023-06-04T13:21:54;7.20;;;5.13;;
67816;SDS011;54614;47.576;7.524;2023-06-04T13:24:22;6.47;;;4.80;;
67816;SDS011;54614;47.576;7.524;2023-06-04T13:26:47;7.20;;;4.80;;
67816;SDS011;54614;47.576;7.524;2023-06-04T13:29:13;8.07;;;4.80;;
67816;SDS011;54614;47.576;7.524;2023-06-04T13:31:41;8.10;;;4.75;;
67816;SDS011;54614;47.576;7.524;2023-06-04T13:34:07;7.00;;;4.93;;
67816;SDS011;54614;47.576;7.524;2023-06-04T13:36:32;5.97;;;4.88;;
67816;SDS011;54614;47.576;7.524;2023-06-04T13:38:58;5.95;;;4.47;;
67816;SDS011;54614;47.576;7.524;2023-06-04T13:41:24;8.40;;;4.85;;
67816;SDS011;54614;47.576;7.524;2023-06-04T13:43:50;8.13;;;5.13;;
67816;SDS011;54614;47.576;7.524;2023-06-04T13:46:16;8.43;;;4.93;;
67816;SDS011;54614;47.576;7.524;2023-06-04T13:48:41;6.93;;;4.53;;
67816;SDS011;54614;47.576;7.524;2023-06-04T13:51:07;8.60;;;4.70;;
67816;SDS011;54614;47.576;7.524;2023-06-04T13:53:33;9.48;;;4.85;;
67816;SDS011;54614;47.576;7.524;2023-06-04T13:55:59;8.75;;;4.78;;
67816;SDS011;54614;47.576;7.524;2023-06-04T13:58:25;7.20;;;4.55;;
67816;SDS011;54614;47.576;7.524;2023-06-04T14:00:51;6.13;;;4.47;;
67816;SDS011;54614;47.576;7.524;2023-06-04T14:03:18;8.00;;;4.60;;
67816;SDS011;54614;47.576;7.524;2023-06-04T14:05:44;8.70;;;4.35;;
67816;SDS011;54614;47.576;7.524;2023-06-04T14:08:10;10.43;;;4.90;;
67816;SDS011;54614;47.576;7.524;2023-06-04T14:10:37;11.35;;;5.22;;
67816;SDS011;54614;47.576;7.524;2023-06-04T14:13:06;9.23;;;4.80;;
67816;SDS011;54614;47.576;7.524;2023-06-04T14:15:33;14.13;;;5.13;;
67816;SDS011;54614;47.576;7.524;2023-06-04T14:17:59;12.80;;;4.93;;
67816;SDS011;54614;47.576;7.524;2023-06-04T14:20:26;13.70;;;4.68;;
67816;SDS011;54614;47.576;7.524;2023-06-04T14:22:51;10.85;;;4.78;;
67816;SDS011;54614;47.576;7.524;2023-06-04T14:25:17;7.72;;;4.40;;
67816;SDS011;54614;47.576;7.524;2023-06-04T14:27:43;7.55;;;4.97;;
67816;SDS011;54614;47.576;7.524;2023-06-04T14:30:09;10.73;;;4.72;;
67816;SDS011;54614;47.576;7.524;2023-06-04T14:32:35;10.00;;;4.93;;
67816;SDS011;54614;47.576;7.524;2023-06-04T14:35:02;10.70;;;4.93;;
67816;SDS011;54614;47.576;7.524;2023-06-04T14:37:28;10.30;;;5.28;;
67816;SDS011;54614;47.576;7.524;2023-06-04T14:39:54;8.27;;;4.75;;
67816;SDS011;54614;47.576;7.524;2023-06-04T14:42:19;11.50;;;5.03;;
67816;SDS011;54614;47.576;7.524;2023-06-04T14:44:45;8.73;;;4.82;;
67816;SDS011;54614;47.576;7.524;2023-06-04T14:47:11;10.45;;;5.10;;
67816;SDS011;54614;47.576;7.524;2023-06-04T14:49:37;9.85;;;5.10;;
67816;SDS011;54614;47.576;7.524;2023-06-04T14:52:06;8.73;;;4.57;;